Time;durP1;ratioP1;P1;durP2;ratioP2;P2;SDS_P1;SDS_P2;PMS_P1;PMS_P2;Temp;Humidity;BMP_temperature;BMP_pressure;BME280_temperature;BME280_humidity;BME280_pressure;Samples;Min_cycle;Max_cycle;Signal;HPM_P1;HPM_P2
2022/06/23 00:00:23;;;;;;;;;;;29.70;45.60;;;;;;665368;29;1154;-92
2022/06/23 00:00:47;;;;;;;;;;;29.50;43.70;;;;;;665274;29;1274;-91
2022/06/23 00:01:13;;;;;;;;;;;29.50;46.90;;;;;;665346;29;1242;-91
2022/06/23 00:01:48;;;;;;;;;;;29.50;43.70;;;;;;665368;29;1273;-91
2022/06/23 00:02:17;;;;;;;;;;;29.50;43.70;;;;;;665261;29;1354;-92
2022/06/23 00:02:38;;;;;;;;;;;29.50;43.70;;;;;;665259;29;1258;-92
2022/06/23 00:03:00;;;;;;;;;;;29.70;46.60;;;;;;666511;29;1347;-91
2022/06/23 00:03:24;;;;;;;;;;;29.60;44.70;;;;;;667659;29;1895;-90
2022/06/23 00:03:49;;;;;;;;;;;29.50;43.70;;;;;;667579;29;1395;-91
2022/06/23 00:04:19;;;;;;;;;;;28.70;44.40;;;;;;670088;29;1466;-92
2022/06/23 00:04:42;;;;;;;;;;;29.60;43.70;;;;;;667731;29;1375;-92
2022/06/23 00:05:07;;;;;;;;;;;27.90;43.60;;;;;;667704;29;1110;-92
2022/06/23 00:05:29;;;;;;;;;;;29.50;44.00;;;;;;665215;29;1359;-92
2022/06/23 00:05:54;;;;;;;;;;;29.60;44.60;;;;;;665224;29;1235;-91
2022/06/23 00:06:39;;;;;;;;;;;29.50;44.90;;;;;;665200;29;1209;-91
2022/06/23 00:07:05;;;;;;;;;;;29.60;43.70;;;;;;667928;29;1308;-91
2022/06/23 00:07:30;;;;;;;;;;;29.50;43.60;;;;;;667703;29;1316;-92
2022/06/23 00:07:52;;;;;;;;;;;29.50;44.00;;;;;;665181;29;1366;-91
2022/06/23 00:08:14;;;;;;;;;;;29.50;44.60;;;;;;665047;29;1187;-92
2022/06/23 00:08:42;;;;;;;;;;;29.50;45.10;;;;;;665288;29;1315;-90
2022/06/23 00:09:27;;;;;;;;;;;29.50;43.60;;;;;;665272;29;1220;-92
2022/06/23 00:09:49;;;;;;;;;;;29.50;43.60;;;;;;665215;29;1265;-92
2022/06/23 00:10:14;;;;;;;;;;;29.50;44.20;;;;;;669551;29;1318;-91
2022/06/23 00:10:41;;;;;;;;;;;29.60;43.70;;;;;;670311;29;1576;-92
2022/06/23 00:11:01;;;;;;;;;;;29.60;43.70;;;;;;670245;29;1154;-91
2022/06/23 00:11:23;;;;;;;;;;;29.60;45.60;;;;;;667693;29;1155;-93
2022/06/23 00:11:47;;;;;;;;;;;29.50;44.60;;;;;;676285;29;1319;-92
2022/06/23 00:12:19;;;;;;;;;;;29.60;44.60;;;;;;680428;29;1369;-93
2022/06/23 00:12:41;;;;;;;;;;;29.60;43.70;;;;;;678136;29;1394;-92
2022/06/23 00:13:03;;;;;;;;;;;29.60;44.40;;;;;;683220;29;1116;-91
2022/06/23 00:13:35;;;;;;;;;;;29.60;47.00;;;;;;680726;29;1359;-92
2022/06/23 00:14:06;;;;;;;;;;;29.50;43.60;;;;;;677170;29;1206;-93
2022/06/23 00:14:27;;;;;;;;;;;29.70;43.70;;;;;;676354;29;1310;-91
2022/06/23 00:14:50;;;;;;;;;;;29.60;45.30;;;;;;676139;29;1219;-92
2022/06/23 00:15:31;;;;;;;;;;;29.60;45.00;;;;;;678101;29;1393;-91
2022/06/23 00:15:54;;;;;;;;;;;29.60;45.10;;;;;;675505;29;1253;-92
2022/06/23 00:16:20;;;;;;;;;;;29.60;45.30;;;;;;680573;29;1182;-92
2022/06/23 00:16:41;;;;;;;;;;;29.70;44.60;;;;;;681549;29;1258;-91
2022/06/23 00:17:15;;;;;;;;;;;29.60;45.50;;;;;;682295;29;1311;-93
2022/06/23 00:17:39;;;;;;;;;;;29.60;43.70;;;;;;682318;29;1399;-91
2022/06/23 00:18:02;;;;;;;;;;;29.70;44.30;;;;;;685079;29;1315;-90
2022/06/23 00:18:24;;;;;;;;;;;29.60;44.40;;;;;;682270;29;1300;-91
2022/06/23 00:18:45;;;;;;;;;;;29.60;44.70;;;;;;679845;29;1261;-90
2022/06/23 00:19:08;;;;;;;;;;;29.70;47.40;;;;;;674711;29;1246;-91
2022/06/23 00:19:29;;;;;;;;;;;29.60;45.70;;;;;;676195;29;1298;-90
2022/06/23 00:19:50;;;;;;;;;;;29.60;47.00;;;;;;678424;29;822;-91
2022/06/23 00:20:17;;;;;;;;;;;29.60;48.60;;;;;;680153;29;1362;-91
2022/06/23 00:20:42;;;;;;;;;;;29.60;43.70;;;;;;677008;29;1236;-91
2022/06/23 00:21:16;;;;;;;;;;;29.60;45.90;;;;;;676340;29;1021;-91
2022/06/23 00:21:37;;;;;;;;;;;29.60;43.70;;;;;;676904;29;1245;-90
2022/06/23 00:21:58;;;;;;;;;;;29.60;47.10;;;;;;676511;29;1406;-90
2022/06/23 00:22:20;;;;;;;;;;;29.60;46.70;;;;;;679821;29;1162;-91
2022/06/23 00:22:43;;;;;;;;;;;31.60;46.30;;;;;;681783;29;1235;-91
2022/06/23 00:23:06;;;;;;;;;;;29.70;45.50;;;;;;679153;29;1115;-91
2022/06/23 00:23:33;;;;;;;;;;;29.60;45.20;;;;;;678606;29;1905;-90
2022/06/23 00:23:57;;;;;;;;;;;29.70;45.10;;;;;;676543;29;1303;-91
2022/06/23 00:24:20;;;;;;;;;;;29.70;44.80;;;;;;674346;29;1202;-91
2022/06/23 00:24:41;;;;;;;;;;;29.80;45.40;;;;;;674659;29;1336;-91
2022/06/23 00:25:04;;;;;;;;;;;29.40;45.50;;;;;;671891;29;1382;-91
2022/06/23 00:25:28;;;;;;;;;;;29.60;45.80;;;;;;671513;29;1291;-90
2022/06/23 00:25:52;;;;;;;;;;;28.00;42.60;;;;;;678039;29;1164;-91
2022/06/23 00:26:16;;;;;;;;;;;29.60;44.20;;;;;;678446;29;1342;-91
2022/06/23 00:26:37;;;;;;;;;;;29.60;44.70;;;;;;678548;29;1187;-91
2022/06/23 00:26:58;;;;;;;;;;;29.60;48.00;;;;;;675815;29;1257;-91
2022/06/23 00:27:21;;;;;;;;;;;29.60;46.20;;;;;;677296;29;1269;-89
2022/06/23 00:27:44;;;;;;;;;;;29.70;44.80;;;;;;676179;29;1328;-91
2022/06/23 00:28:07;;;;;;;;;;;29.70;45.60;;;;;;673825;29;1199;-91
2022/06/23 00:28:32;;;;;;;;;;;29.70;46.00;;;;;;670595;29;1188;-91
2022/06/23 00:29:03;;;;;;;;;;;29.70;43.80;;;;;;672225;29;1203;-91
2022/06/23 00:29:24;;;;;;;;;;;28.50;44.40;;;;;;675888;29;1132;-91
2022/06/23 00:29:45;;;;;;;;;;;29.70;46.10;;;;;;675564;29;1247;-90
2022/06/23 00:30:18;;;;;;;;;;;29.60;45.60;;;;;;675656;29;1286;-91
2022/06/23 00:30:40;;;;;;;;;;;29.70;45.30;;;;;;675426;29;1229;-91
2022/06/23 00:31:03;;;;;;;;;;;29.60;45.50;;;;;;675462;29;1249;-92
2022/06/23 00:31:26;;;;;;;;;;;29.60;44.50;;;;;;673022;29;1232;-91
2022/06/23 00:31:57;;;;;;;;;;;29.60;44.80;;;;;;675584;29;1254;-91
2022/06/23 00:32:18;;;;;;;;;;;29.80;43.80;;;;;;675446;29;1498;-91
2022/06/23 00:32:39;;;;;;;;;;;29.80;44.60;;;;;;675403;29;1116;-91
2022/06/23 00:33:26;;;;;;;;;;;29.60;45.90;;;;;;673198;29;1230;-90
2022/06/23 00:33:46;;;;;;;;;;;29.60;43.70;;;;;;670022;29;1189;-91
2022/06/23 00:34:18;;;;;;;;;;;29.70;47.80;;;;;;671663;29;1189;-91
2022/06/23 00:35:11;;;;;;;;;;;29.60;43.70;;;;;;675382;29;1162;-91
2022/06/23 00:35:32;;;;;;;;;;;29.70;43.80;;;;;;670941;29;1375;-92
2022/06/23 00:35:53;;;;;;;;;;;29.60;46.90;;;;;;673487;29;753;-92
2022/06/23 00:36:18;;;;;;;;;;;29.10;45.50;;;;;;675385;29;1401;-90
2022/06/23 00:36:43;;;;;;;;;;;29.60;44.60;;;;;;672757;29;1313;-91
2022/06/23 00:37:05;;;;;;;;;;;29.60;44.50;;;;;;672769;29;1167;-91
2022/06/23 00:37:26;;;;;;;;;;;29.60;44.40;;;;;;672811;29;1133;-91
2022/06/23 00:37:49;;;;;;;;;;;29.60;45.00;;;;;;672897;29;1266;-92
2022/06/23 00:38:23;;;;;;;;;;;29.70;44.80;;;;;;672840;29;881;-90
2022/06/23 00:38:44;;;;;;;;;;;29.60;43.80;;;;;;672876;29;1400;-91
2022/06/23 00:39:06;;;;;;;;;;;29.60;45.10;;;;;;672478;29;1395;-91
2022/06/23 00:39:30;;;;;;;;;;;29.60;45.20;;;;;;675290;29;1244;-92
2022/06/23 00:39:55;;;;;;;;;;;29.60;43.80;;;;;;672846;29;1227;-91
2022/06/23 00:40:19;;;;;;;;;;;29.60;43.90;;;;;;672720;29;1308;-92
2022/06/23 00:40:41;;;;;;;;;;;29.70;45.00;;;;;;670601;29;1129;-92
2022/06/23 00:41:02;;;;;;;;;;;29.60;44.60;;;;;;668167;29;1234;-93
2022/06/23 00:41:27;;;;;;;;;;;29.70;44.70;;;;;;668438;29;1367;-92
2022/06/23 00:41:48;;;;;;;;;;;29.50;44.90;;;;;;672263;29;1205;-91
2022/06/23 00:42:21;;;;;;;;;;;29.60;44.50;;;;;;672759;29;1311;-92
2022/06/23 00:42:52;;;;;;;;;;;29.50;45.10;;;;;;672835;29;1308;-92
2022/06/23 00:43:13;;;;;;;;;;;29.50;46.00;;;;;;672733;29;1454;-92
2022/06/23 00:43:34;;;;;;;;;;;27.80;44.80;;;;;;669516;29;1962;-92
2022/06/23 00:43:59;;;;;;;;;;;29.60;44.30;;;;;;667668;29;1427;-92
2022/06/23 00:44:30;;;;;;;;;;;29.50;43.90;;;;;;667601;29;1452;-92
2022/06/23 00:44:51;;;;;;;;;;;29.50;43.90;;;;;;667753;29;1121;-92
2022/06/23 00:45:11;;;;;;;;;;;29.60;45.60;;;;;;668011;29;1204;-91
2022/06/23 00:45:35;;;;;;;;;;;29.60;48.80;;;;;;672400;29;1112;-93
2022/06/23 00:45:58;;;;;;;;;;;29.60;43.90;;;;;;670138;29;1127;-92
2022/06/23 00:46:18;;;;;;;;;;;29.60;45.10;;;;;;670080;29;1130;-91
2022/06/23 00:46:52;;;;;;;;;;;29.60;46.80;;;;;;671040;29;1334;-92
2022/06/23 00:47:15;;;;;;;;;;;29.50;45.10;;;;;;667460;29;1364;-92
2022/06/23 00:47:36;;;;;;;;;;;28.50;45.40;;;;;;665114;29;1248;-92
2022/06/23 00:48:16;;;;;;;;;;;29.50;47.00;;;;;;670238;29;1259;-91
2022/06/23 00:48:40;;;;;;;;;;;29.60;44.00;;;;;;670156;29;1210;-91
2022/06/23 00:49:06;;;;;;;;;;;29.60;45.10;;;;;;671042;29;871;-90
2022/06/23 00:49:36;;;;;;;;;;;29.50;44.80;;;;;;671248;29;1118;-91
2022/06/23 00:49:57;;;;;;;;;;;29.70;44.10;;;;;;667663;29;1324;-90
2022/06/23 00:50:20;;;;;;;;;;;29.50;46.70;;;;;;670181;29;1231;-90
2022/06/23 00:50:43;;;;;;;;;;;27.50;47.50;;;;;;670112;29;1238;-90
2022/06/23 00:51:09;;;;;;;;;;;29.50;44.00;;;;;;670183;29;1074;-90
2022/06/23 00:51:42;;;;;;;;;;;29.50;44.00;;;;;;670193;29;1196;-90
2022/06/23 00:52:14;;;;;;;;;;;29.60;44.10;;;;;;669777;29;1226;-91
2022/06/23 00:52:35;;;;;;;;;;;29.50;45.10;;;;;;667588;29;1164;-90
2022/06/23 00:53:01;;;;;;;;;;;29.60;46.10;;;;;;668806;29;1210;-90
2022/06/23 00:53:45;;;;;;;;;;;29.50;44.10;;;;;;668976;29;1272;-90
2022/06/23 00:54:17;;;;;;;;;;;29.70;44.20;;;;;;665144;29;1339;-90
2022/06/23 00:54:43;;;;;;;;;;;27.50;44.10;;;;;;664963;29;1185;-90
2022/06/23 00:55:12;;;;;;;;;;;29.60;45.30;;;;;;662587;29;1447;-89
2022/06/23 00:55:35;;;;;;;;;;;29.50;46.70;;;;;;662626;29;1178;-90
2022/06/23 00:56:11;;;;;;;;;;;29.60;44.20;;;;;;666340;29;1175;-90
2022/06/23 00:56:47;;;;;;;;;;;29.50;44.10;;;;;;665205;29;1158;-92
2022/06/23 00:57:20;;;;;;;;;;;29.60;44.20;;;;;;665049;29;1082;-91
2022/06/23 00:57:44;;;;;;;;;;;29.50;44.10;;;;;;664568;29;1130;-90
2022/06/23 00:58:16;;;;;;;;;;;29.60;45.00;;;;;;662628;29;1210;-90
2022/06/23 00:58:42;;;;;;;;;;;28.40;43.50;;;;;;662548;29;1239;-90
2022/06/23 00:59:06;;;;;;;;;;;29.50;47.10;;;;;;658461;30;1234;-91
2022/06/23 00:59:33;;;;;;;;;;;29.60;45.00;;;;;;660697;29;1233;-90
2022/06/23 01:00:05;;;;;;;;;;;29.50;44.20;;;;;;660016;30;1187;-90
2022/06/23 01:00:37;;;;;;;;;;;29.60;44.40;;;;;;661185;29;1223;-90
2022/06/23 01:01:03;;;;;;;;;;;29.60;45.00;;;;;;661809;29;1096;-90
2022/06/23 01:01:32;;;;;;;;;;;28.50;43.60;;;;;;658091;30;1152;-91
2022/06/23 01:02:09;;;;;;;;;;;29.50;44.30;;;;;;660096;30;1128;-91
2022/06/23 01:02:38;;;;;;;;;;;29.50;44.30;;;;;;660206;30;1327;-90
2022/06/23 01:03:19;;;;;;;;;;;29.60;44.50;;;;;;662585;29;1235;-88
2022/06/23 01:03:53;;;;;;;;;;;29.40;45.10;;;;;;661667;29;1544;-91
2022/06/23 01:04:17;;;;;;;;;;;29.60;46.50;;;;;;665078;29;1126;-90
2022/06/23 01:04:47;;;;;;;;;;;29.50;46.50;;;;;;665035;29;1196;-91
2022/06/23 01:05:28;;;;;;;;;;;29.60;44.50;;;;;;665183;29;1210;-92
2022/06/23 01:05:52;;;;;;;;;;;29.50;46.20;;;;;;660082;29;1281;-91
2022/06/23 01:06:23;;;;;;;;;;;29.40;45.70;;;;;;657834;29;1456;-90
2022/06/23 01:06:50;;;;;;;;;;;29.60;44.70;;;;;;657564;30;1083;-91
2022/06/23 01:07:21;;;;;;;;;;;29.60;44.70;;;;;;657598;30;1523;-91
2022/06/23 01:08:00;;;;;;;;;;;29.60;45.60;;;;;;656345;30;1332;-91
2022/06/23 01:08:39;;;;;;;;;;;29.50;44.60;;;;;;655082;30;1385;-91
2022/06/23 01:09:04;;;;;;;;;;;29.50;44.70;;;;;;657698;30;1344;-91
2022/06/23 01:09:28;;;;;;;;;;;29.40;45.10;;;;;;657811;30;861;-91
2022/06/23 01:09:53;;;;;;;;;;;28.40;43.60;;;;;;657525;30;1365;-91
2022/06/23 01:10:21;;;;;;;;;;;29.40;46.20;;;;;;656390;30;1249;-91
2022/06/23 01:10:48;;;;;;;;;;;29.50;47.80;;;;;;654671;30;1306;-91
2022/06/23 01:11:21;;;;;;;;;;;28.60;43.90;;;;;;655212;30;1139;-90
2022/06/23 01:11:44;;;;;;;;;;;29.60;44.80;;;;;;655228;30;1207;-90
2022/06/23 01:12:20;;;;;;;;;;;29.40;47.30;;;;;;658754;29;1218;-91
2022/06/23 01:12:41;;;;;;;;;;;29.60;44.90;;;;;;662902;29;1158;-92
2022/06/23 01:13:04;;;;;;;;;;;27.10;46.50;;;;;;663776;29;1237;-92
2022/06/23 01:13:29;;;;;;;;;;;29.50;44.90;;;;;;665221;29;1372;-91
2022/06/23 01:13:56;;;;;;;;;;;29.60;46.00;;;;;;662185;29;1235;-93
2022/06/23 01:14:16;;;;;;;;;;;29.40;45.90;;;;;;662689;29;1142;-92
2022/06/23 01:14:37;;;;;;;;;;;29.50;46.90;;;;;;665188;29;1336;-91
2022/06/23 01:15:03;;;;;;;;;;;29.50;47.90;;;;;;665198;29;1205;-90
2022/06/23 01:15:24;;;;;;;;;;;29.50;45.00;;;;;;665019;29;1303;-91
2022/06/23 01:15:50;;;;;;;;;;;29.70;46.50;;;;;;662579;29;1119;-90
2022/06/23 01:16:35;;;;;;;;;;;28.00;45.50;;;;;;662661;29;1210;-92
2022/06/23 01:17:02;;;;;;;;;;;29.60;45.10;;;;;;662592;29;1171;-94
2022/06/23 01:17:27;;;;;;;;;;;29.50;46.10;;;;;;660130;30;1276;-89
2022/06/23 01:17:53;;;;;;;;;;;29.50;46.30;;;;;;662472;29;1300;-91
2022/06/23 01:18:22;;;;;;;;;;;29.50;46.70;;;;;;659985;30;1162;-89
2022/06/23 01:19:02;;;;;;;;;;;29.50;45.10;;;;;;660552;29;1423;-91
2022/06/23 01:19:40;;;;;;;;;;;29.50;45.30;;;;;;662128;29;1142;-92
2022/06/23 01:20:05;;;;;;;;;;;29.20;45.10;;;;;;662562;29;1399;-87
2022/06/23 01:20:31;;;;;;;;;;;29.50;45.80;;;;;;662452;29;801;-87
2022/06/23 01:20:58;;;;;;;;;;;29.50;45.60;;;;;;662484;29;1218;-90
2022/06/23 01:21:32;;;;;;;;;;;29.50;45.40;;;;;;662593;29;1459;-87
2022/06/23 01:21:58;;;;;;;;;;;29.50;45.70;;;;;;662411;29;1409;-89
2022/06/23 01:22:24;;;;;;;;;;;29.50;45.80;;;;;;657575;30;1155;-89
2022/06/23 01:22:59;;;;;;;;;;;29.50;45.80;;;;;;659981;30;1096;-88
2022/06/23 01:23:35;;;;;;;;;;;29.50;46.50;;;;;;662298;29;1904;-89
2022/06/23 01:23:55;;;;;;;;;;;29.50;45.60;;;;;;662712;29;1125;-87
2022/06/23 01:24:34;;;;;;;;;;;29.50;46.50;;;;;;664520;29;1304;-88
2022/06/23 01:24:55;;;;;;;;;;;29.50;45.70;;;;;;665129;29;1186;-88
2022/06/23 01:25:24;;;;;;;;;;;29.50;47.20;;;;;;665087;29;1162;-88
2022/06/23 01:26:10;;;;;;;;;;;29.50;45.80;;;;;;666072;29;1155;-88
2022/06/23 01:26:56;;;;;;;;;;;29.50;45.70;;;;;;667691;29;1204;-88
2022/06/23 01:27:20;;;;;;;;;;;29.50;46.00;;;;;;665548;29;1414;-90
2022/06/23 01:28:01;;;;;;;;;;;29.50;46.00;;;;;;665514;29;1080;-89
2022/06/23 01:28:25;;;;;;;;;;;29.50;46.50;;;;;;665572;29;939;-93
2022/06/23 01:28:45;;;;;;;;;;;29.50;46.50;;;;;;666647;29;1321;-94
2022/06/23 01:29:09;;;;;;;;;;;29.50;47.10;;;;;;666302;29;1324;-93
2022/06/23 01:29:38;;;;;;;;;;;29.40;47.70;;;;;;664891;29;1298;-93
2022/06/23 01:30:03;;;;;;;;;;;29.40;46.10;;;;;;664890;29;1365;-91
2022/06/23 01:30:26;;;;;;;;;;;29.50;46.30;;;;;;664373;29;1344;-94
2022/06/23 01:30:54;;;;;;;;;;;29.50;46.50;;;;;;664492;29;1298;-91
2022/06/23 01:31:21;;;;;;;;;;;29.50;46.20;;;;;;664593;29;1182;-92
2022/06/23 01:31:47;;;;;;;;;;;29.50;46.30;;;;;;664867;29;1376;-92
2022/06/23 01:32:14;;;;;;;;;;;29.50;46.10;;;;;;666329;29;1386;-93
2022/06/23 01:32:34;;;;;;;;;;;28.70;45.80;;;;;;669551;29;1238;-88
2022/06/23 01:33:08;;;;;;;;;;;29.50;46.70;;;;;;668661;29;1348;-90
2022/06/23 01:33:33;;;;;;;;;;;29.50;46.70;;;;;;669901;29;1564;-92
2022/06/23 01:34:03;;;;;;;;;;;29.50;47.50;;;;;;668983;29;1393;-92
2022/06/23 01:34:36;;;;;;;;;;;29.50;47.80;;;;;;669633;29;1117;-94
2022/06/23 01:35:11;;;;;;;;;;;29.90;46.30;;;;;;666667;29;1146;-92
2022/06/23 01:35:40;;;;;;;;;;;29.50;46.50;;;;;;664793;29;1244;-92
2022/06/23 01:36:10;;;;;;;;;;;29.60;47.30;;;;;;667068;29;1243;-92
2022/06/23 01:36:36;;;;;;;;;;;29.50;47.20;;;;;;669499;29;1222;-92
2022/06/23 01:37:17;;;;;;;;;;;29.40;45.90;;;;;;669799;29;1176;-92
2022/06/23 01:38:13;;;;;;;;;;;29.40;46.60;;;;;;667861;29;1367;-94
2022/06/23 01:38:46;;;;;;;;;;;28.80;45.40;;;;;;667784;29;1309;-93
2022/06/23 01:39:06;;;;;;;;;;;30.80;46.90;;;;;;668092;29;1226;-93
2022/06/23 01:39:32;;;;;;;;;;;29.50;49.80;;;;;;667906;29;1363;-93
2022/06/23 01:40:04;;;;;;;;;;;29.50;46.00;;;;;;670471;29;1125;-94
2022/06/23 01:40:43;;;;;;;;;;;29.40;46.70;;;;;;669797;29;1298;-93
2022/06/23 01:41:30;;;;;;;;;;;29.40;49.30;;;;;;670362;29;1170;-92
2022/06/23 01:42:40;;;;;;;;;;;29.50;46.10;;;;;;670377;29;1318;-94
2022/06/23 01:43:27;;;;;;;;;;;29.60;46.00;;;;;;667450;29;1300;-92
2022/06/23 01:43:59;;;;;;;;;;;29.60;46.10;;;;;;665181;29;1470;-93
2022/06/23 01:44:40;;;;;;;;;;;29.50;46.00;;;;;;672822;29;1235;-95
2022/06/23 01:45:15;;;;;;;;;;;29.50;48.20;;;;;;672182;29;1407;-93
2022/06/23 01:45:38;;;;;;;;;;;29.50;46.10;;;;;;670393;29;1428;-91
2022/06/23 01:46:28;;;;;;;;;;;29.50;46.50;;;;;;667588;29;1350;-88
2022/06/23 01:47:00;;;;;;;;;;;29.50;46.40;;;;;;669331;29;1262;-92
2022/06/23 01:49:35;;;;;;;;;;;27.40;46.80;;;;;;667864;29;1528;-94
2022/06/23 01:50:00;;;;;;;;;;;29.50;46.20;;;;;;667697;29;1312;-95
2022/06/23 01:50:31;;;;;;;;;;;29.40;47.50;;;;;;665142;29;1389;-95
2022/06/23 01:50:53;;;;;;;;;;;29.40;46.20;;;;;;665158;29;1343;-92
2022/06/23 01:51:31;;;;;;;;;;;29.40;48.10;;;;;;665250;29;1304;-94
2022/06/23 01:52:02;;;;;;;;;;;29.40;46.40;;;;;;667274;29;1339;-93
2022/06/23 01:52:23;;;;;;;;;;;30.60;47.20;;;;;;667874;29;1303;-95
2022/06/23 01:52:48;;;;;;;;;;;29.30;48.70;;;;;;670318;29;1303;-93
2022/06/23 01:53:17;;;;;;;;;;;29.30;48.10;;;;;;666436;29;1117;-96
2022/06/23 01:53:38;;;;;;;;;;;29.50;46.40;;;;;;668444;29;1297;-96
2022/06/23 01:54:13;;;;;;;;;;;29.40;51.40;;;;;;668599;29;1416;-96
2022/06/23 01:54:46;;;;;;;;;;;29.40;46.30;;;;;;670296;29;1659;-94
2022/06/23 01:55:37;;;;;;;;;;;29.40;47.80;;;;;;672206;29;1777;-95
2022/06/23 01:56:22;;;;;;;;;;;30.00;46.70;;;;;;672718;29;1426;-93
2022/06/23 01:56:42;;;;;;;;;;;28.40;45.60;;;;;;666368;29;1147;-95
2022/06/23 01:57:09;;;;;;;;;;;29.90;49.60;;;;;;666908;29;1271;-96
2022/06/23 01:57:42;;;;;;;;;;;29.40;46.90;;;;;;667120;29;1169;-96
2022/06/23 01:58:22;;;;;;;;;;;;;;;;;;;;;
2022/06/23 01:58:48;;;;;;;;;;;29.30;47.80;;;;;;659598;30;1127;-95
2022/06/23 01:59:26;;;;;;;;;;;29.40;53.80;;;;;;661599;30;1437;-95
2022/06/23 01:59:47;;;;;;;;;;;29.30;46.40;;;;;;662507;29;1398;-96
2022/06/23 02:00:10;;;;;;;;;;;29.30;51.30;;;;;;664490;29;1311;-96
2022/06/23 02:00:39;;;;;;;;;;;29.30;46.40;;;;;;664922;29;1313;-93
2022/06/23 02:01:03;;;;;;;;;;;29.30;48.50;;;;;;666388;29;1355;-96
2022/06/23 02:01:37;;;;;;;;;;;29.30;48.10;;;;;;663235;29;1241;-95
2022/06/23 02:02:10;;;;;;;;;;;29.30;46.50;;;;;;660668;29;1264;-96
2022/06/23 02:02:43;;;;;;;;;;;29.40;46.80;;;;;;663040;29;1499;-95
2022/06/23 02:03:22;;;;;;;;;;;29.50;46.70;;;;;;663023;29;1309;-96
2022/06/23 02:03:49;;;;;;;;;;;29.30;46.50;;;;;;665342;29;1395;-96
2022/06/23 02:04:14;;;;;;;;;;;29.40;49.70;;;;;;667933;29;1267;-96
2022/06/23 02:04:44;;;;;;;;;;;29.30;48.00;;;;;;665295;29;1291;-96
2022/06/23 02:05:11;;;;;;;;;;;29.40;46.50;;;;;;664892;29;1178;-96
2022/06/23 02:05:37;;;;;;;;;;;29.40;46.50;;;;;;667597;29;1175;-93
2022/06/23 02:06:05;;;;;;;;;;;29.30;46.40;;;;;;666885;29;1099;-96
2022/06/23 02:06:29;;;;;;;;;;;29.30;46.50;;;;;;664928;29;1411;-96
2022/06/23 02:06:54;;;;;;;;;;;29.30;47.80;;;;;;665412;29;1213;-95
2022/06/23 02:07:40;;;;;;;;;;;28.30;45.70;;;;;;667582;29;1451;-96
2022/06/23 02:08:21;;;;;;;;;;;29.60;46.60;;;;;;670264;29;1281;-96
2022/06/23 02:08:48;;;;;;;;;;;29.40;46.50;;;;;;667573;29;1201;-95
2022/06/23 02:09:21;;;;;;;;;;;29.30;48.20;;;;;;665992;29;1266;-96
2022/06/23 02:09:46;;;;;;;;;;;29.40;46.60;;;;;;665359;29;1247;-96
2022/06/23 02:10:27;;;;;;;;;;;29.30;48.80;;;;;;665192;29;1235;-95
2022/06/23 02:10:57;;;;;;;;;;;29.40;48.40;;;;;;664703;29;1359;-92
2022/06/23 02:11:29;;;;;;;;;;;30.20;48.90;;;;;;665187;29;1241;-96
2022/06/23 02:11:52;;;;;;;;;;;29.30;46.50;;;;;;667416;29;1288;-95
2022/06/23 02:12:16;;;;;;;;;;;29.30;48.00;;;;;;662376;29;1288;-95
2022/06/23 02:12:45;;;;;;;;;;;29.30;47.60;;;;;;663322;29;1254;-94
2022/06/23 02:13:10;;;;;;;;;;;29.40;46.50;;;;;;664375;29;1439;-96
2022/06/23 02:13:37;;;;;;;;;;;29.50;47.20;;;;;;665121;29;1355;-94
2022/06/23 02:13:57;;;;;;;;;;;29.40;46.60;;;;;;668109;29;1355;-96
2022/06/23 02:14:19;;;;;;;;;;;27.30;48.80;;;;;;670579;29;1395;-95
2022/06/23 02:14:45;;;;;;;;;;;29.40;50.10;;;;;;667637;29;1225;-95
2022/06/23 02:15:11;;;;;;;;;;;29.40;46.60;;;;;;667928;29;1373;-96
2022/06/23 02:15:46;;;;;;;;;;;29.30;48.80;;;;;;662831;29;1273;-94
2022/06/23 02:16:25;;;;;;;;;;;29.40;48.60;;;;;;661229;29;1217;-93
2022/06/23 02:16:51;;;;;;;;;;;27.30;45.10;;;;;;662505;29;1525;-96
2022/06/23 02:17:30;;;;;;;;;;;29.50;48.50;;;;;;659861;30;1330;-93
2022/06/23 02:17:55;;;;;;;;;;;29.40;46.70;;;;;;665427;29;1333;-96
2022/06/23 02:18:25;;;;;;;;;;;29.40;48.10;;;;;;667469;29;1356;-94
2022/06/23 02:18:52;;;;;;;;;;;29.10;46.40;;;;;;669932;29;1316;-95
2022/06/23 02:19:19;;;;;;;;;;;29.40;46.60;;;;;;667581;29;1510;-95
2022/06/23 02:19:41;;;;;;;;;;;29.40;47.50;;;;;;667657;29;1144;-95
2022/06/23 02:20:15;;;;;;;;;;;29.30;47.60;;;;;;667600;29;1082;-94
2022/06/23 02:20:56;;;;;;;;;;;29.30;50.50;;;;;;667640;29;1236;-95
2022/06/23 02:21:26;;;;;;;;;;;29.30;48.20;;;;;;665032;29;1313;-93
2022/06/23 02:21:52;;;;;;;;;;;28.30;45.90;;;;;;664742;29;1366;-92
2022/06/23 02:22:16;;;;;;;;;;;29.50;46.80;;;;;;662398;29;1329;-95
2022/06/23 02:22:38;;;;;;;;;;;29.50;46.80;;;;;;665235;29;1302;-95
2022/06/23 02:23:08;;;;;;;;;;;29.40;47.30;;;;;;665010;29;1258;-93
2022/06/23 02:23:31;;;;;;;;;;;27.20;45.00;;;;;;665185;29;1915;-94
2022/06/23 02:24:04;;;;;;;;;;;29.40;46.60;;;;;;667617;29;1213;-95
2022/06/23 02:24:31;;;;;;;;;;;29.50;46.80;;;;;;666525;29;1510;-95
2022/06/23 02:24:57;;;;;;;;;;;29.40;47.90;;;;;;661205;29;1416;-95
2022/06/23 02:25:22;;;;;;;;;;;29.40;46.70;;;;;;663616;29;1270;-96
2022/06/23 02:25:48;;;;;;;;;;;29.30;47.40;;;;;;664916;29;1417;-96
2022/06/23 02:26:15;;;;;;;;;;;29.40;48.40;;;;;;665157;29;1481;-96
2022/06/23 02:27:00;;;;;;;;;;;29.40;47.40;;;;;;667904;29;1371;-95
2022/06/23 02:27:38;;;;;;;;;;;28.70;46.30;;;;;;667591;29;1290;-95
2022/06/23 02:28:13;;;;;;;;;;;29.30;46.60;;;;;;668666;29;1340;-95
2022/06/23 02:28:52;;;;;;;;;;;29.30;46.60;;;;;;665472;29;1214;-95
2022/06/23 02:29:13;;;;;;;;;;;29.30;46.60;;;;;;669678;29;1115;-93
2022/06/23 02:29:34;;;;;;;;;;;29.40;50.00;;;;;;670265;29;1212;-94
2022/06/23 02:29:59;;;;;;;;;;;29.40;49.60;;;;;;672759;29;1333;-94
2022/06/23 02:30:28;;;;;;;;;;;29.40;46.80;;;;;;672757;29;1356;-92
2022/06/23 02:30:59;;;;;;;;;;;29.40;47.80;;;;;;672759;29;1314;-94
2022/06/23 02:31:24;;;;;;;;;;;29.30;46.80;;;;;;671957;29;1134;-96
2022/06/23 02:32:11;;;;;;;;;;;30.60;48.80;;;;;;670165;29;874;-94
2022/06/23 02:32:32;;;;;;;;;;;29.50;46.80;;;;;;670287;29;1279;-96
2022/06/23 02:32:53;;;;;;;;;;;29.40;51.10;;;;;;672746;29;1355;-96
2022/06/23 02:33:13;;;;;;;;;;;29.40;48.40;;;;;;672748;29;1464;-95
2022/06/23 02:33:40;;;;;;;;;;;29.40;52.40;;;;;;672974;29;1287;-95
2022/06/23 02:34:12;;;;;;;;;;;28.30;45.90;;;;;;672767;29;1156;-95
2022/06/23 02:35:02;;;;;;;;;;;29.30;46.60;;;;;;670457;29;1275;-96
2022/06/23 02:35:23;;;;;;;;;;;29.30;46.70;;;;;;666636;29;1354;-95
2022/06/23 02:36:02;;;;;;;;;;;29.50;50.30;;;;;;667417;29;1320;-96
2022/06/23 02:36:25;;;;;;;;;;;29.30;46.70;;;;;;666521;29;1323;-96
2022/06/23 02:37:08;;;;;;;;;;;29.40;46.80;;;;;;667537;29;1404;-95
2022/06/23 02:37:47;;;;;;;;;;;29.40;46.70;;;;;;667305;29;1102;-94
2022/06/23 02:38:11;;;;;;;;;;;29.40;46.70;;;;;;667228;29;1244;-95
2022/06/23 02:38:38;;;;;;;;;;;29.30;46.70;;;;;;667101;29;1109;-95
2022/06/23 02:39:02;;;;;;;;;;;29.40;46.70;;;;;;664979;29;1227;-95
2022/06/23 02:39:41;;;;;;;;;;;29.30;48.30;;;;;;666494;29;1298;-96
2022/06/23 02:40:03;;;;;;;;;;;29.60;47.00;;;;;;666067;29;1478;-93
2022/06/23 02:40:44;;;;;;;;;;;29.40;48.00;;;;;;664027;29;1326;-96
2022/06/23 02:41:09;;;;;;;;;;;29.40;46.80;;;;;;662272;29;1225;-95
2022/06/23 02:41:32;;;;;;;;;;;29.40;47.50;;;;;;665011;29;1293;-95
2022/06/23 02:41:55;;;;;;;;;;;29.00;46.50;;;;;;663793;29;1496;-95
2022/06/23 02:42:32;;;;;;;;;;;29.40;48.40;;;;;;663554;29;1216;-95
2022/06/23 02:43:14;;;;;;;;;;;29.30;46.60;;;;;;665799;29;1284;-96
2022/06/23 02:43:47;;;;;;;;;;;29.40;46.70;;;;;;665135;29;1880;-95
2022/06/23 02:44:29;;;;;;;;;;;29.40;46.60;;;;;;665226;29;1311;-95
2022/06/23 02:44:52;;;;;;;;;;;29.30;46.60;;;;;;663031;29;1295;-94
2022/06/23 02:45:22;;;;;;;;;;;29.40;46.60;;;;;;665229;29;1284;-95
2022/06/23 02:45:52;;;;;;;;;;;29.40;47.70;;;;;;665146;29;1181;-94
2022/06/23 02:46:44;;;;;;;;;;;29.40;46.60;;;;;;665030;29;1445;-95
2022/06/23 02:47:25;;;;;;;;;;;29.40;46.60;;;;;;661491;29;1120;-93
2022/06/23 02:48:04;;;;;;;;;;;29.50;47.80;;;;;;660507;30;1195;-95
2022/06/23 02:48:27;;;;;;;;;;;29.40;46.70;;;;;;660418;30;1337;-95
2022/06/23 02:48:53;;;;;;;;;;;29.40;50.50;;;;;;662991;29;1111;-94
2022/06/23 02:49:20;;;;;;;;;;;29.40;46.60;;;;;;663226;29;1254;-96
2022/06/23 02:49:45;;;;;;;;;;;29.30;46.60;;;;;;662982;29;1291;-94
2022/06/23 02:50:09;;;;;;;;;;;29.50;48.60;;;;;;663061;29;1219;-95
2022/06/23 02:50:53;;;;;;;;;;;29.40;46.60;;;;;;663088;29;1393;-93
2022/06/23 02:51:25;;;;;;;;;;;29.30;46.60;;;;;;660666;30;798;-95
2022/06/23 02:52:12;;;;;;;;;;;29.40;46.60;;;;;;660475;30;1220;-95
2022/06/23 02:52:55;;;;;;;;;;;29.50;46.70;;;;;;660455;30;1348;-96
2022/06/23 02:53:27;;;;;;;;;;;29.40;50.10;;;;;;660479;30;1253;-96
2022/06/23 02:53:58;;;;;;;;;;;29.50;49.30;;;;;;660840;29;1394;-94
2022/06/23 02:54:27;;;;;;;;;;;29.50;46.70;;;;;;662376;29;1263;-96
2022/06/23 02:55:05;;;;;;;;;;;29.40;46.60;;;;;;662925;29;1392;-94